sensor_id;sensor_type;location;lat;lon;timestamp;P1;durP1;ratioP1;P2;durP2;ratioP2
78989;SDS011;68390;52.130;21.218;2024-02-21T00:01:36;10.65;;;3.85;;
78989;SDS011;68390;52.130;21.218;2024-02-21T00:04:02;10.85;;;4.07;;
78989;SDS011;68390;52.130;21.218;2024-02-21T00:06:27;8.35;;;3.35;;
78989;SDS011;68390;52.130;21.218;2024-02-21T00:08:53;10.35;;;3.65;;
78989;SDS011;68390;52.130;21.218;2024-02-21T00:11:18;9.15;;;3.85;;
78989;SDS011;68390;52.130;21.218;2024-02-21T00:13:44;10.55;;;3.60;;
78989;SDS011;68390;52.130;21.218;2024-02-21T00:16:10;12.35;;;4.03;;
78989;SDS011;68390;52.130;21.218;2024-02-21T00:18:37;8.70;;;3.58;;
78989;SDS011;68390;52.130;21.218;2024-02-21T00:21:03;12.88;;;4.07;;
78989;SDS011;68390;52.130;21.218;2024-02-21T00:23:28;10.45;;;4.05;;
78989;SDS011;68390;52.130;21.218;2024-02-21T00:25:54;11.52;;;3.97;;
78989;SDS011;68390;52.130;21.218;2024-02-21T00:28:20;8.55;;;4.20;;
78989;SDS011;68390;52.130;21.218;2024-02-21T00:30:47;10.27;;;3.65;;
78989;SDS011;68390;52.130;21.218;2024-02-21T00:33:16;11.52;;;4.55;;
78989;SDS011;68390;52.130;21.218;2024-02-21T00:35:42;10.23;;;3.70;;
78989;SDS011;68390;52.130;21.218;2024-02-21T00:38:09;13.25;;;3.88;;
78989;SDS011;68390;52.130;21.218;2024-02-21T00:40:35;14.48;;;4.30;;
78989;SDS011;68390;52.130;21.218;2024-02-21T00:43:01;11.55;;;4.35;;
78989;SDS011;68390;52.130;21.218;2024-02-21T00:45:27;12.15;;;4.18;;
78989;SDS011;68390;52.130;21.218;2024-02-21T00:47:54;12.10;;;4.28;;
78989;SDS011;68390;52.130;21.218;2024-02-21T00:50:20;9.57;;;3.92;;
78989;SDS011;68390;52.130;21.218;2024-02-21T00:52:45;10.43;;;4.07;;
78989;SDS011;68390;52.130;21.218;2024-02-21T00:55:11;10.88;;;4.05;;
78989;SDS011;68390;52.130;21.218;2024-02-21T00:57:37;12.52;;;4.32;;
78989;SDS011;68390;52.130;21.218;2024-02-21T01:00:05;9.80;;;4.00;;
78989;SDS011;68390;52.130;21.218;2024-02-21T01:02:33;10.60;;;3.65;;
78989;SDS011;68390;52.130;21.218;2024-02-21T01:05:00;13.20;;;3.90;;
78989;SDS011;68390;52.130;21.218;2024-02-21T01:07:27;8.95;;;3.97;;
78989;SDS011;68390;52.130;21.218;2024-02-21T01:09:52;8.07;;;3.50;;
78989;SDS011;68390;52.130;21.218;2024-02-21T01:12:18;8.23;;;4.00;;
78989;SDS011;68390;52.130;21.218;2024-02-21T01:14:44;9.10;;;3.40;;
78989;SDS011;68390;52.130;21.218;2024-02-21T01:17:11;17.63;;;4.10;;
78989;SDS011;68390;52.130;21.218;2024-02-21T01:19:38;13.93;;;4.82;;
78989;SDS011;68390;52.130;21.218;2024-02-21T01:22:04;15.48;;;4.82;;
78989;SDS011;68390;52.130;21.218;2024-02-21T01:24:30;10.50;;;3.92;;
78989;SDS011;68390;52.130;21.218;2024-02-21T01:26:56;13.52;;;4.28;;
78989;SDS011;68390;52.130;21.218;2024-02-21T01:29:21;14.38;;;3.80;;
78989;SDS011;68390;52.130;21.218;2024-02-21T01:31:48;8.60;;;4.45;;
78989;SDS011;68390;52.130;21.218;2024-02-21T01:34:14;11.43;;;4.00;;
78989;SDS011;68390;52.130;21.218;2024-02-21T01:36:43;10.02;;;4.32;;
78989;SDS011;68390;52.130;21.218;2024-02-21T01:39:08;13.15;;;4.22;;
78989;SDS011;68390;52.130;21.218;2024-02-21T01:41:34;16.42;;;4.68;;
78989;SDS011;68390;52.130;21.218;2024-02-21T01:44:00;16.17;;;4.80;;
78989;SDS011;68390;52.130;21.218;2024-02-21T01:46:26;10.68;;;4.07;;
78989;SDS011;68390;52.130;21.218;2024-02-21T01:48:59;13.38;;;4.53;;
78989;SDS011;68390;52.130;21.218;2024-02-21T01:51:26;12.57;;;4.97;;
78989;SDS011;68390;52.130;21.218;2024-02-21T01:53:52;11.43;;;4.50;;
78989;SDS011;68390;52.130;21.218;2024-02-21T01:56:20;12.82;;;4.30;;
78989;SDS011;68390;52.130;21.218;2024-02-21T01:58:46;17.38;;;5.40;;
78989;SDS011;68390;52.130;21.218;2024-02-21T02:01:13;12.20;;;4.80;;
78989;SDS011;68390;52.130;21.218;2024-02-21T02:03:39;19.42;;;5.47;;
78989;SDS011;68390;52.130;21.218;2024-02-21T02:06:05;19.83;;;5.43;;
78989;SDS011;68390;52.130;21.218;2024-02-21T02:11:00;11.13;;;5.00;;
78989;SDS011;68390;52.130;21.218;2024-02-21T02:13:26;10.32;;;4.53;;
78989;SDS011;68390;52.130;21.218;2024-02-21T02:15:52;12.05;;;4.30;;
78989;SDS011;68390;52.130;21.218;2024-02-21T02:18:19;15.05;;;4.68;;
78989;SDS011;68390;52.130;21.218;2024-02-21T02:20:46;14.25;;;4.78;;
78989;SDS011;68390;52.130;21.218;2024-02-21T02:23:31;16.00;;;5.57;;
78989;SDS011;68390;52.130;21.218;2024-02-21T02:25:59;14.52;;;4.75;;
78989;SDS011;68390;52.130;21.218;2024-02-21T02:30:54;12.82;;;4.93;;
78989;SDS011;68390;52.130;21.218;2024-02-21T02:33:19;12.60;;;4.80;;
78989;SDS011;68390;52.130;21.218;2024-02-21T02:35:45;13.60;;;4.85;;
78989;SDS011;68390;52.130;21.218;2024-02-21T02:38:11;14.48;;;4.88;;
78989;SDS011;68390;52.130;21.218;2024-02-21T02:40:38;11.88;;;5.22;;
78989;SDS011;68390;52.130;21.218;2024-02-21T02:43:05;12.70;;;5.28;;
78989;SDS011;68390;52.130;21.218;2024-02-21T02:45:31;13.20;;;4.95;;
78989;SDS011;68390;52.130;21.218;2024-02-21T02:47:57;11.50;;;5.07;;
78989;SDS011;68390;52.130;21.218;2024-02-21T02:50:24;14.57;;;5.57;;
78989;SDS011;68390;52.130;21.218;2024-02-21T02:52:50;17.60;;;5.45;;
78989;SDS011;68390;52.130;21.218;2024-02-21T02:55:16;14.73;;;4.68;;
78989;SDS011;68390;52.130;21.218;2024-02-21T02:57:42;10.27;;;3.90;;
78989;SDS011;68390;52.130;21.218;2024-02-21T03:00:08;10.98;;;5.30;;
78989;SDS011;68390;52.130;21.218;2024-02-21T03:02:37;15.57;;;4.78;;
78989;SDS011;68390;52.130;21.218;2024-02-21T03:05:11;15.55;;;4.95;;
78989;SDS011;68390;52.130;21.218;2024-02-21T03:07:38;12.70;;;4.75;;
78989;SDS011;68390;52.130;21.218;2024-02-21T03:10:04;9.98;;;4.10;;
78989;SDS011;68390;52.130;21.218;2024-02-21T03:12:30;14.25;;;4.68;;
78989;SDS011;68390;52.130;21.218;2024-02-21T03:14:55;16.10;;;5.03;;
78989;SDS011;68390;52.130;21.218;2024-02-21T03:17:32;15.80;;;5.40;;
78989;SDS011;68390;52.130;21.218;2024-02-21T03:20:02;16.60;;;5.45;;
78989;SDS011;68390;52.130;21.218;2024-02-21T03:22:34;14.50;;;5.47;;
78989;SDS011;68390;52.130;21.218;2024-02-21T03:25:00;14.18;;;5.65;;
78989;SDS011;68390;52.130;21.218;2024-02-21T03:27:26;13.02;;;5.25;;
78989;SDS011;68390;52.130;21.218;2024-02-21T03:29:52;18.08;;;6.28;;
78989;SDS011;68390;52.130;21.218;2024-02-21T03:32:18;12.93;;;6.55;;
78989;SDS011;68390;52.130;21.218;2024-02-21T03:34:45;13.98;;;6.22;;
78989;SDS011;68390;52.130;21.218;2024-02-21T03:37:11;13.93;;;6.25;;
78989;SDS011;68390;52.130;21.218;2024-02-21T03:39:38;14.70;;;6.05;;
78989;SDS011;68390;52.130;21.218;2024-02-21T03:42:04;14.05;;;6.78;;
78989;SDS011;68390;52.130;21.218;2024-02-21T03:44:31;16.75;;;6.47;;
78989;SDS011;68390;52.130;21.218;2024-02-21T03:46:57;14.25;;;6.07;;
78989;SDS011;68390;52.130;21.218;2024-02-21T03:49:27;16.15;;;5.72;;
78989;SDS011;68390;52.130;21.218;2024-02-21T03:51:53;15.32;;;6.72;;
78989;SDS011;68390;52.130;21.218;2024-02-21T03:54:20;17.90;;;7.35;;
78989;SDS011;68390;52.130;21.218;2024-02-21T03:56:45;12.45;;;6.13;;
78989;SDS011;68390;52.130;21.218;2024-02-21T03:59:13;19.83;;;7.32;;
78989;SDS011;68390;52.130;21.218;2024-02-21T04:01:38;19.48;;;6.78;;
78989;SDS011;68390;52.130;21.218;2024-02-21T04:04:04;14.68;;;6.70;;
78989;SDS011;68390;52.130;21.218;2024-02-21T04:06:30;16.17;;;6.35;;
78989;SDS011;68390;52.130;21.218;2024-02-21T04:08:56;14.27;;;7.03;;
78989;SDS011;68390;52.130;21.218;2024-02-21T04:11:22;16.00;;;6.00;;
78989;SDS011;68390;52.130;21.218;2024-02-21T04:13:48;13.73;;;6.65;;
78989;SDS011;68390;52.130;21.218;2024-02-21T04:16:15;13.90;;;5.57;;
78989;SDS011;68390;52.130;21.218;2024-02-21T04:18:43;18.45;;;6.50;;
78989;SDS011;68390;52.130;21.218;2024-02-21T04:21:13;12.57;;;5.93;;
78989;SDS011;68390;52.130;21.218;2024-02-21T04:23:41;19.13;;;7.05;;
78989;SDS011;68390;52.130;21.218;2024-02-21T04:26:07;14.65;;;6.32;;
78989;SDS011;68390;52.130;21.218;2024-02-21T04:28:33;14.27;;;6.15;;
78989;SDS011;68390;52.130;21.218;2024-02-21T04:30:59;19.15;;;6.93;;
78989;SDS011;68390;52.130;21.218;2024-02-21T04:33:24;20.63;;;7.57;;
78989;SDS011;68390;52.130;21.218;2024-02-21T04:35:51;17.02;;;6.05;;
78989;SDS011;68390;52.130;21.218;2024-02-21T04:38:19;13.75;;;6.22;;
78989;SDS011;68390;52.130;21.218;2024-02-21T04:40:45;15.25;;;6.00;;
78989;SDS011;68390;52.130;21.218;2024-02-21T04:43:12;16.30;;;6.38;;
78989;SDS011;68390;52.130;21.218;2024-02-21T04:45:38;21.88;;;7.00;;
78989;SDS011;68390;52.130;21.218;2024-02-21T04:48:03;12.40;;;6.50;;
78989;SDS011;68390;52.130;21.218;2024-02-21T04:50:30;18.67;;;6.85;;
78989;SDS011;68390;52.130;21.218;2024-02-21T04:52:56;14.73;;;6.85;;
78989;SDS011;68390;52.130;21.218;2024-02-21T04:55:22;13.77;;;5.50;;
78989;SDS011;68390;52.130;21.218;2024-02-21T04:57:48;17.95;;;7.57;;
78989;SDS011;68390;52.130;21.218;2024-02-21T05:00:14;16.75;;;6.78;;
78989;SDS011;68390;52.130;21.218;2024-02-21T05:02:40;20.60;;;7.20;;
78989;SDS011;68390;52.130;21.218;2024-02-21T05:05:06;19.15;;;7.30;;
78989;SDS011;68390;52.130;21.218;2024-02-21T05:07:32;15.55;;;6.35;;
78989;SDS011;68390;52.130;21.218;2024-02-21T05:10:00;14.80;;;6.97;;
78989;SDS011;68390;52.130;21.218;2024-02-21T05:12:26;13.75;;;5.38;;
78989;SDS011;68390;52.130;21.218;2024-02-21T05:14:52;15.93;;;7.05;;
78989;SDS011;68390;52.130;21.218;2024-02-21T05:17:17;15.50;;;6.70;;
78989;SDS011;68390;52.130;21.218;2024-02-21T05:19:43;18.37;;;7.97;;
78989;SDS011;68390;52.130;21.218;2024-02-21T05:22:09;16.35;;;7.55;;
78989;SDS011;68390;52.130;21.218;2024-02-21T05:24:35;18.67;;;7.60;;
78989;SDS011;68390;52.130;21.218;2024-02-21T05:27:01;13.98;;;6.25;;
78989;SDS011;68390;52.130;21.218;2024-02-21T05:29:28;15.80;;;7.00;;
78989;SDS011;68390;52.130;21.218;2024-02-21T05:31:55;19.42;;;7.68;;
78989;SDS011;68390;52.130;21.218;2024-02-21T05:34:24;15.90;;;8.13;;
78989;SDS011;68390;52.130;21.218;2024-02-21T05:36:53;16.55;;;7.25;;
78989;SDS011;68390;52.130;21.218;2024-02-21T05:39:21;23.25;;;7.15;;
78989;SDS011;68390;52.130;21.218;2024-02-21T05:41:48;19.50;;;7.32;;
78989;SDS011;68390;52.130;21.218;2024-02-21T05:44:16;16.73;;;7.68;;
78989;SDS011;68390;52.130;21.218;2024-02-21T05:46:42;17.95;;;6.72;;
78989;SDS011;68390;52.130;21.218;2024-02-21T05:49:07;15.82;;;6.53;;
78989;SDS011;68390;52.130;21.218;2024-02-21T05:51:33;15.40;;;7.30;;
78989;SDS011;68390;52.130;21.218;2024-02-21T05:53:59;12.30;;;5.97;;
78989;SDS011;68390;52.130;21.218;2024-02-21T05:56:25;15.13;;;5.97;;
78989;SDS011;68390;52.130;21.218;2024-02-21T05:58:51;15.00;;;6.38;;
78989;SDS011;68390;52.130;21.218;2024-02-21T06:01:16;12.40;;;5.70;;
78989;SDS011;68390;52.130;21.218;2024-02-21T06:03:43;18.25;;;7.10;;
78989;SDS011;68390;52.130;21.218;2024-02-21T06:06:09;14.13;;;6.20;;
78989;SDS011;68390;52.130;21.218;2024-02-21T06:08:34;16.38;;;6.45;;
78989;SDS011;68390;52.130;21.218;2024-02-21T06:11:00;12.13;;;6.97;;
78989;SDS011;68390;52.130;21.218;2024-02-21T06:13:26;18.80;;;6.40;;
78989;SDS011;68390;52.130;21.218;2024-02-21T06:15:52;12.77;;;5.90;;
78989;SDS011;68390;52.130;21.218;2024-02-21T06:18:18;15.27;;;7.13;;
78989;SDS011;68390;52.130;21.218;2024-02-21T06:20:45;15.35;;;6.65;;
78989;SDS011;68390;52.130;21.218;2024-02-21T06:23:11;19.02;;;7.57;;
78989;SDS011;68390;52.130;21.218;2024-02-21T06:25:38;16.75;;;6.88;;
78989;SDS011;68390;52.130;21.218;2024-02-21T06:28:05;17.77;;;7.05;;
78989;SDS011;68390;52.130;21.218;2024-02-21T06:30:31;17.00;;;8.20;;
78989;SDS011;68390;52.130;21.218;2024-02-21T06:32:56;18.05;;;7.65;;
78989;SDS011;68390;52.130;21.218;2024-02-21T06:35:22;16.83;;;7.18;;
78989;SDS011;68390;52.130;21.218;2024-02-21T06:37:49;23.10;;;12.25;;
78989;SDS011;68390;52.130;21.218;2024-02-21T06:40:25;21.50;;;9.52;;
78989;SDS011;68390;52.130;21.218;2024-02-21T06:42:52;19.92;;;8.80;;
78989;SDS011;68390;52.130;21.218;2024-02-21T06:45:17;19.38;;;8.80;;
78989;SDS011;68390;52.130;21.218;2024-02-21T06:47:43;20.05;;;8.73;;
78989;SDS011;68390;52.130;21.218;2024-02-21T06:50:09;21.58;;;9.18;;
78989;SDS011;68390;52.130;21.218;2024-02-21T06:52:38;19.60;;;8.57;;
78989;SDS011;68390;52.130;21.218;2024-02-21T06:55:05;18.80;;;8.20;;
78989;SDS011;68390;52.130;21.218;2024-02-21T06:57:31;17.48;;;8.38;;
78989;SDS011;68390;52.130;21.218;2024-02-21T06:59:57;18.75;;;8.30;;
78989;SDS011;68390;52.130;21.218;2024-02-21T07:02:22;20.50;;;8.82;;
78989;SDS011;68390;52.130;21.218;2024-02-21T07:04:48;25.63;;;9.73;;
78989;SDS011;68390;52.130;21.218;2024-02-21T07:07:14;19.75;;;8.88;;
78989;SDS011;68390;52.130;21.218;2024-02-21T07:09:40;19.73;;;10.05;;
78989;SDS011;68390;52.130;21.218;2024-02-21T07:12:05;23.63;;;9.35;;
78989;SDS011;68390;52.130;21.218;2024-02-21T07:14:35;20.52;;;9.00;;
78989;SDS011;68390;52.130;21.218;2024-02-21T07:17:01;22.45;;;9.82;;
78989;SDS011;68390;52.130;21.218;2024-02-21T07:19:28;18.25;;;10.20;;
78989;SDS011;68390;52.130;21.218;2024-02-21T07:21:54;24.20;;;10.38;;
78989;SDS011;68390;52.130;21.218;2024-02-21T07:24:20;21.77;;;9.65;;
78989;SDS011;68390;52.130;21.218;2024-02-21T07:26:46;26.92;;;11.20;;
78989;SDS011;68390;52.130;21.218;2024-02-21T07:29:12;24.10;;;11.13;;
78989;SDS011;68390;52.130;21.218;2024-02-21T07:31:41;23.52;;;11.20;;
78989;SDS011;68390;52.130;21.218;2024-02-21T07:34:08;23.02;;;9.98;;
78989;SDS011;68390;52.130;21.218;2024-02-21T07:36:34;22.00;;;10.27;;
78989;SDS011;68390;52.130;21.218;2024-02-21T07:39:06;27.00;;;11.48;;
78989;SDS011;68390;52.130;21.218;2024-02-21T07:41:32;26.83;;;10.93;;
78989;SDS011;68390;52.130;21.218;2024-02-21T07:43:59;27.17;;;13.38;;
78989;SDS011;68390;52.130;21.218;2024-02-21T07:46:25;28.17;;;12.27;;
78989;SDS011;68390;52.130;21.218;2024-02-21T07:48:50;29.00;;;12.30;;
78989;SDS011;68390;52.130;21.218;2024-02-21T07:51:16;27.45;;;11.27;;
78989;SDS011;68390;52.130;21.218;2024-02-21T07:53:44;22.52;;;10.98;;
78989;SDS011;68390;52.130;21.218;2024-02-21T07:56:10;26.27;;;12.48;;
78989;SDS011;68390;52.130;21.218;2024-02-21T07:58:36;33.03;;;12.40;;
78989;SDS011;68390;52.130;21.218;2024-02-21T08:01:02;24.60;;;11.95;;
78989;SDS011;68390;52.130;21.218;2024-02-21T08:03:27;29.52;;;12.13;;
78989;SDS011;68390;52.130;21.218;2024-02-21T08:05:53;29.50;;;13.02;;
78989;SDS011;68390;52.130;21.218;2024-02-21T08:08:18;30.02;;;12.45;;
78989;SDS011;68390;52.130;21.218;2024-02-21T08:10:46;25.98;;;12.75;;
78989;SDS011;68390;52.130;21.218;2024-02-21T08:13:11;29.10;;;11.98;;
78989;SDS011;68390;52.130;21.218;2024-02-21T08:15:36;27.80;;;12.63;;
78989;SDS011;68390;52.130;21.218;2024-02-21T08:18:04;30.40;;;12.82;;
78989;SDS011;68390;52.130;21.218;2024-02-21T08:20:30;30.95;;;13.05;;
78989;SDS011;68390;52.130;21.218;2024-02-21T08:22:56;26.55;;;12.07;;
78989;SDS011;68390;52.130;21.218;2024-02-21T08:25:21;27.77;;;11.88;;
78989;SDS011;68390;52.130;21.218;2024-02-21T08:27:46;33.08;;;13.00;;
78989;SDS011;68390;52.130;21.218;2024-02-21T08:30:12;27.75;;;11.40;;
78989;SDS011;68390;52.130;21.218;2024-02-21T08:32:38;27.05;;;10.95;;
78989;SDS011;68390;52.130;21.218;2024-02-21T08:35:03;34.38;;;12.18;;
78989;SDS011;68390;52.130;21.218;2024-02-21T08:37:30;31.48;;;9.98;;
78989;SDS011;68390;52.130;21.218;2024-02-21T08:39:55;29.00;;;11.90;;
78989;SDS011;68390;52.130;21.218;2024-02-21T08:42:21;25.92;;;11.60;;
78989;SDS011;68390;52.130;21.218;2024-02-21T08:44:46;32.75;;;11.98;;
78989;SDS011;68390;52.130;21.218;2024-02-21T08:47:15;27.38;;;10.05;;
78989;SDS011;68390;52.130;21.218;2024-02-21T08:49:40;29.50;;;10.88;;
78989;SDS011;68390;52.130;21.218;2024-02-21T08:52:06;27.90;;;11.95;;
78989;SDS011;68390;52.130;21.218;2024-02-21T08:54:31;23.45;;;10.20;;
78989;SDS011;68390;52.130;21.218;2024-02-21T08:57:00;27.10;;;10.25;;
78989;SDS011;68390;52.130;21.218;2024-02-21T08:59:25;24.42;;;9.70;;
78989;SDS011;68390;52.130;21.218;2024-02-21T09:01:51;23.50;;;10.07;;
78989;SDS011;68390;52.130;21.218;2024-02-21T09:04:18;23.58;;;9.75;;
78989;SDS011;68390;52.130;21.218;2024-02-21T09:06:44;29.55;;;10.10;;
78989;SDS011;68390;52.130;21.218;2024-02-21T09:09:11;22.63;;;9.30;;
78989;SDS011;68390;52.130;21.218;2024-02-21T09:11:36;19.83;;;9.15;;
78989;SDS011;68390;52.130;21.218;2024-02-21T09:14:02;18.00;;;8.77;;
78989;SDS011;68390;52.130;21.218;2024-02-21T09:16:30;23.92;;;8.93;;
78989;SDS011;68390;52.130;21.218;2024-02-21T09:18:56;22.05;;;9.27;;
78989;SDS011;68390;52.130;21.218;2024-02-21T09:21:22;24.85;;;9.48;;
78989;SDS011;68390;52.130;21.218;2024-02-21T09:23:48;16.80;;;8.38;;
78989;SDS011;68390;52.130;21.218;2024-02-21T09:26:13;23.88;;;8.38;;
78989;SDS011;68390;52.130;21.218;2024-02-21T09:28:41;24.15;;;9.30;;
78989;SDS011;68390;52.130;21.218;2024-02-21T09:31:06;16.38;;;8.15;;
78989;SDS011;68390;52.130;21.218;2024-02-21T09:33:32;18.08;;;8.85;;
78989;SDS011;68390;52.130;21.218;2024-02-21T09:35:57;21.42;;;8.52;;
78989;SDS011;68390;52.130;21.218;2024-02-21T09:38:22;22.02;;;9.05;;
78989;SDS011;68390;52.130;21.218;2024-02-21T09:40:52;24.00;;;8.85;;
78989;SDS011;68390;52.130;21.218;2024-02-21T09:43:25;18.02;;;7.88;;
78989;SDS011;68390;52.130;21.218;2024-02-21T09:45:51;18.50;;;7.88;;
78989;SDS011;68390;52.130;21.218;2024-02-21T09:51:05;28.83;;;8.90;;
78989;SDS011;68390;52.130;21.218;2024-02-21T09:53:32;20.88;;;8.05;;
78989;SDS011;68390;52.130;21.218;2024-02-21T09:55:59;21.77;;;8.50;;
78989;SDS011;68390;52.130;21.218;2024-02-21T09:58:25;21.13;;;7.30;;
78989;SDS011;68390;52.130;21.218;2024-02-21T10:00:52;19.80;;;7.88;;
78989;SDS011;68390;52.130;21.218;2024-02-21T10:03:18;18.48;;;7.75;;
78989;SDS011;68390;52.130;21.218;2024-02-21T10:05:46;19.00;;;8.48;;
78989;SDS011;68390;52.130;21.218;2024-02-21T10:08:14;19.95;;;7.65;;
78989;SDS011;68390;52.130;21.218;2024-02-21T10:10:45;28.60;;;8.90;;
78989;SDS011;68390;52.130;21.218;2024-02-21T10:13:23;17.45;;;7.78;;
78989;SDS011;68390;52.130;21.218;2024-02-21T10:16:00;19.95;;;7.85;;
78989;SDS011;68390;52.130;21.218;2024-02-21T10:18:28;20.88;;;7.47;;
78989;SDS011;68390;52.130;21.218;2024-02-21T10:21:04;19.35;;;7.75;;
78989;SDS011;68390;52.130;21.218;2024-02-21T10:23:51;19.73;;;7.90;;
78989;SDS011;68390;52.130;21.218;2024-02-21T10:26:17;13.25;;;6.43;;
78989;SDS011;68390;52.130;21.218;2024-02-21T10:28:43;18.60;;;7.05;;
78989;SDS011;68390;52.130;21.218;2024-02-21T10:31:21;16.05;;;6.53;;
78989;SDS011;68390;52.130;21.218;2024-02-21T10:33:59;20.02;;;7.05;;
78989;SDS011;68390;52.130;21.218;2024-02-21T10:36:29;17.55;;;7.20;;
78989;SDS011;68390;52.130;21.218;2024-02-21T10:38:54;18.02;;;7.35;;
78989;SDS011;68390;52.130;21.218;2024-02-21T10:41:21;19.50;;;6.78;;
78989;SDS011;68390;52.130;21.218;2024-02-21T10:43:50;16.92;;;6.97;;
78989;SDS011;68390;52.130;21.218;2024-02-21T10:46:20;20.45;;;7.65;;
78989;SDS011;68390;52.130;21.218;2024-02-21T10:48:47;16.58;;;6.97;;
78989;SDS011;68390;52.130;21.218;2024-02-21T10:51:17;20.10;;;8.43;;
78989;SDS011;68390;52.130;21.218;2024-02-21T10:54:01;18.40;;;7.32;;
78989;SDS011;68390;52.130;21.218;2024-02-21T10:56:36;19.02;;;7.30;;
78989;SDS011;68390;52.130;21.218;2024-02-21T10:59:05;17.75;;;6.85;;
78989;SDS011;68390;52.130;21.218;2024-02-21T11:01:31;18.73;;;7.65;;
78989;SDS011;68390;52.130;21.218;2024-02-21T11:03:58;20.17;;;7.65;;
78989;SDS011;68390;52.130;21.218;2024-02-21T11:06:26;21.50;;;7.68;;
78989;SDS011;68390;52.130;21.218;2024-02-21T11:09:00;21.88;;;7.80;;
78989;SDS011;68390;52.130;21.218;2024-02-21T11:11:32;17.50;;;7.55;;
78989;SDS011;68390;52.130;21.218;2024-02-21T11:16:43;22.65;;;7.55;;
78989;SDS011;68390;52.130;21.218;2024-02-21T11:19:09;18.65;;;8.18;;
78989;SDS011;68390;52.130;21.218;2024-02-21T11:21:44;16.20;;;7.68;;
78989;SDS011;68390;52.130;21.218;2024-02-21T11:24:09;25.33;;;8.88;;
78989;SDS011;68390;52.130;21.218;2024-02-21T11:26:36;18.20;;;7.70;;
78989;SDS011;68390;52.130;21.218;2024-02-21T11:29:02;22.75;;;8.07;;
78989;SDS011;68390;52.130;21.218;2024-02-21T11:31:38;21.23;;;8.63;;
78989;SDS011;68390;52.130;21.218;2024-02-21T11:34:07;17.10;;;7.95;;
78989;SDS011;68390;52.130;21.218;2024-02-21T11:36:34;21.48;;;8.63;;
78989;SDS011;68390;52.130;21.218;2024-02-21T11:39:08;19.85;;;8.10;;
78989;SDS011;68390;52.130;21.218;2024-02-21T11:41:34;20.35;;;8.65;;
78989;SDS011;68390;52.130;21.218;2024-02-21T11:44:00;18.33;;;8.68;;
78989;SDS011;68390;52.130;21.218;2024-02-21T11:46:25;22.08;;;9.73;;
78989;SDS011;68390;52.130;21.218;2024-02-21T11:48:51;26.23;;;8.93;;
78989;SDS011;68390;52.130;21.218;2024-02-21T11:51:24;18.60;;;8.30;;
78989;SDS011;68390;52.130;21.218;2024-02-21T11:53:54;16.45;;;8.98;;
78989;SDS011;68390;52.130;21.218;2024-02-21T11:56:19;23.90;;;9.32;;
78989;SDS011;68390;52.130;21.218;2024-02-21T11:58:46;30.88;;;9.55;;
78989;SDS011;68390;52.130;21.218;2024-02-21T12:03:40;20.48;;;8.40;;
78989;SDS011;68390;52.130;21.218;2024-02-21T12:06:06;21.20;;;9.88;;
78989;SDS011;68390;52.130;21.218;2024-02-21T12:08:45;19.38;;;8.05;;
78989;SDS011;68390;52.130;21.218;2024-02-21T12:11:20;23.23;;;10.32;;
78989;SDS011;68390;52.130;21.218;2024-02-21T12:13:47;20.13;;;9.30;;
78989;SDS011;68390;52.130;21.218;2024-02-21T12:16:16;28.50;;;10.65;;
78989;SDS011;68390;52.130;21.218;2024-02-21T12:18:43;23.90;;;10.07;;
78989;SDS011;68390;52.130;21.218;2024-02-21T12:21:09;25.88;;;10.45;;
78989;SDS011;68390;52.130;21.218;2024-02-21T12:23:37;29.17;;;10.38;;
78989;SDS011;68390;52.130;21.218;2024-02-21T12:26:03;20.63;;;10.93;;
78989;SDS011;68390;52.130;21.218;2024-02-21T12:28:30;24.25;;;10.23;;
78989;SDS011;68390;52.130;21.218;2024-02-21T12:30:55;29.65;;;9.95;;
78989;SDS011;68390;52.130;21.218;2024-02-21T12:33:21;25.85;;;10.23;;
78989;SDS011;68390;52.130;21.218;2024-02-21T12:35:46;20.58;;;11.43;;
78989;SDS011;68390;52.130;21.218;2024-02-21T12:38:12;29.67;;;11.70;;
78989;SDS011;68390;52.130;21.218;2024-02-21T12:40:38;25.63;;;11.50;;
78989;SDS011;68390;52.130;21.218;2024-02-21T12:43:04;24.95;;;10.98;;
78989;SDS011;68390;52.130;21.218;2024-02-21T12:45:29;24.23;;;10.15;;
78989;SDS011;68390;52.130;21.218;2024-02-21T12:47:55;30.30;;;11.95;;
78989;SDS011;68390;52.130;21.218;2024-02-21T12:50:20;20.60;;;10.63;;
78989;SDS011;68390;52.130;21.218;2024-02-21T12:52:47;22.60;;;11.43;;
78989;SDS011;68390;52.130;21.218;2024-02-21T12:55:14;30.05;;;11.52;;
78989;SDS011;68390;52.130;21.218;2024-02-21T12:57:41;32.53;;;12.30;;
78989;SDS011;68390;52.130;21.218;2024-02-21T13:00:07;22.83;;;10.73;;
78989;SDS011;68390;52.130;21.218;2024-02-21T13:02:34;27.63;;;11.30;;
78989;SDS011;68390;52.130;21.218;2024-02-21T13:05:00;29.65;;;11.77;;
78989;SDS011;68390;52.130;21.218;2024-02-21T13:07:27;31.80;;;12.43;;
78989;SDS011;68390;52.130;21.218;2024-02-21T13:09:53;25.85;;;11.57;;
78989;SDS011;68390;52.130;21.218;2024-02-21T13:12:19;26.75;;;11.52;;
78989;SDS011;68390;52.130;21.218;2024-02-21T13:14:44;26.80;;;12.30;;
78989;SDS011;68390;52.130;21.218;2024-02-21T13:17:10;25.58;;;10.80;;
78989;SDS011;68390;52.130;21.218;2024-02-21T13:19:35;27.80;;;11.95;;
78989;SDS011;68390;52.130;21.218;2024-02-21T13:22:00;29.00;;;11.85;;
78989;SDS011;68390;52.130;21.218;2024-02-21T13:24:27;25.50;;;11.23;;
78989;SDS011;68390;52.130;21.218;2024-02-21T13:26:52;19.27;;;10.32;;
78989;SDS011;68390;52.130;21.218;2024-02-21T13:29:18;26.23;;;12.57;;
78989;SDS011;68390;52.130;21.218;2024-02-21T13:31:44;24.83;;;11.70;;
78989;SDS011;68390;52.130;21.218;2024-02-21T13:34:09;27.95;;;11.00;;
78989;SDS011;68390;52.130;21.218;2024-02-21T13:36:35;25.15;;;11.98;;
78989;SDS011;68390;52.130;21.218;2024-02-21T13:39:00;24.35;;;11.43;;
78989;SDS011;68390;52.130;21.218;2024-02-21T13:41:25;27.10;;;11.88;;
78989;SDS011;68390;52.130;21.218;2024-02-21T13:43:51;22.08;;;11.82;;
78989;SDS011;68390;52.130;21.218;2024-02-21T13:46:17;26.52;;;12.15;;
78989;SDS011;68390;52.130;21.218;2024-02-21T13:48:42;24.23;;;11.48;;
78989;SDS011;68390;52.130;21.218;2024-02-21T13:51:08;26.50;;;11.80;;
78989;SDS011;68390;52.130;21.218;2024-02-21T13:53:33;22.50;;;11.88;;
78989;SDS011;68390;52.130;21.218;2024-02-21T13:55:59;23.63;;;10.88;;
78989;SDS011;68390;52.130;21.218;2024-02-21T13:58:25;23.08;;;11.85;;
78989;SDS011;68390;52.130;21.218;2024-02-21T14:00:51;19.10;;;10.85;;
78989;SDS011;68390;52.130;21.218;2024-02-21T14:03:17;20.90;;;11.38;;
78989;SDS011;68390;52.130;21.218;2024-02-21T14:05:44;21.23;;;10.60;;
78989;SDS011;68390;52.130;21.218;2024-02-21T14:08:09;27.15;;;11.95;;
78989;SDS011;68390;52.130;21.218;2024-02-21T14:10:34;30.55;;;12.35;;
78989;SDS011;68390;52.130;21.218;2024-02-21T14:13:00;24.35;;;10.98;;
78989;SDS011;68390;52.130;21.218;2024-02-21T14:15:25;22.73;;;10.55;;
78989;SDS011;68390;52.130;21.218;2024-02-21T14:17:51;28.27;;;11.18;;
78989;SDS011;68390;52.130;21.218;2024-02-21T14:20:16;25.33;;;10.93;;
78989;SDS011;68390;52.130;21.218;2024-02-21T14:22:41;25.63;;;11.90;;
78989;SDS011;68390;52.130;21.218;2024-02-21T14:25:07;27.80;;;11.82;;
78989;SDS011;68390;52.130;21.218;2024-02-21T14:27:33;23.70;;;11.52;;
78989;SDS011;68390;52.130;21.218;2024-02-21T14:30:00;24.45;;;11.75;;